sensor_id;sensor_type;location;lat;lon;timestamp;P1;durP1;ratioP1;P2;durP2;ratioP2
50683;SDS011;36654;45.042;38.994;2023-09-19T00:00:23;8.45;;;5.20;;
50683;SDS011;36654;45.042;38.994;2023-09-19T00:03:00;7.65;;;5.47;;
50683;SDS011;36654;45.042;38.994;2023-09-19T00:05:27;10.95;;;5.90;;
50683;SDS011;36654;45.042;38.994;2023-09-19T00:07:54;9.13;;;5.68;;
50683;SDS011;36654;45.042;38.994;2023-09-19T00:10:24;7.72;;;5.32;;
50683;SDS011;36654;45.042;38.994;2023-09-19T00:12:52;9.27;;;5.40;;
50683;SDS011;36654;45.042;38.994;2023-09-19T00:15:21;10.63;;;5.53;;
50683;SDS011;36654;45.042;38.994;2023-09-19T00:17:47;8.75;;;5.32;;
50683;SDS011;36654;45.042;38.994;2023-09-19T00:20:13;11.43;;;6.30;;
50683;SDS011;36654;45.042;38.994;2023-09-19T00:22:43;6.43;;;4.60;;
50683;SDS011;36654;45.042;38.994;2023-09-19T00:25:09;9.40;;;5.47;;
50683;SDS011;36654;45.042;38.994;2023-09-19T00:27:36;7.55;;;5.10;;
50683;SDS011;36654;45.042;38.994;2023-09-19T00:30:07;10.18;;;5.60;;
50683;SDS011;36654;45.042;38.994;2023-09-19T00:32:41;8.48;;;5.43;;
50683;SDS011;36654;45.042;38.994;2023-09-19T00:35:09;7.20;;;5.40;;
50683;SDS011;36654;45.042;38.994;2023-09-19T00:37:35;7.25;;;5.50;;
50683;SDS011;36654;45.042;38.994;2023-09-19T00:40:04;9.10;;;5.05;;
50683;SDS011;36654;45.042;38.994;2023-09-19T00:44:56;12.25;;;5.43;;
50683;SDS011;36654;45.042;38.994;2023-09-19T00:47:22;7.68;;;5.43;;
50683;SDS011;36654;45.042;38.994;2023-09-19T00:49:48;8.25;;;5.50;;
50683;SDS011;36654;45.042;38.994;2023-09-19T00:52:17;9.10;;;5.82;;
50683;SDS011;36654;45.042;38.994;2023-09-19T00:54:49;8.25;;;5.60;;
50683;SDS011;36654;45.042;38.994;2023-09-19T00:57:15;7.75;;;5.32;;
50683;SDS011;36654;45.042;38.994;2023-09-19T00:59:42;9.60;;;6.35;;
50683;SDS011;36654;45.042;38.994;2023-09-19T01:02:08;7.47;;;5.53;;
50683;SDS011;36654;45.042;38.994;2023-09-19T01:04:34;11.40;;;5.68;;
50683;SDS011;36654;45.042;38.994;2023-09-19T01:07:01;10.43;;;5.80;;
50683;SDS011;36654;45.042;38.994;2023-09-19T01:09:27;11.88;;;5.82;;
50683;SDS011;36654;45.042;38.994;2023-09-19T01:11:53;9.13;;;5.75;;
50683;SDS011;36654;45.042;38.994;2023-09-19T01:17:26;12.02;;;5.80;;
50683;SDS011;36654;45.042;38.994;2023-09-19T01:20:15;9.27;;;5.80;;
50683;SDS011;36654;45.042;38.994;2023-09-19T01:31:03;11.35;;;5.82;;
50683;SDS011;36654;45.042;38.994;2023-09-19T01:36:30;8.27;;;5.65;;
50683;SDS011;36654;45.042;38.994;2023-09-19T01:39:04;9.15;;;6.03;;
50683;SDS011;36654;45.042;38.994;2023-09-19T01:41:57;11.27;;;5.63;;
50683;SDS011;36654;45.042;38.994;2023-09-19T01:44:29;11.48;;;5.97;;
50683;SDS011;36654;45.042;38.994;2023-09-19T01:47:09;11.88;;;6.10;;
50683;SDS011;36654;45.042;38.994;2023-09-19T01:50:02;10.93;;;6.10;;
50683;SDS011;36654;45.042;38.994;2023-09-19T01:52:31;8.48;;;6.03;;
50683;SDS011;36654;45.042;38.994;2023-09-19T01:55:05;10.35;;;5.72;;
50683;SDS011;36654;45.042;38.994;2023-09-19T01:57:48;8.95;;;5.93;;
50683;SDS011;36654;45.042;38.994;2023-09-19T02:00:18;10.55;;;6.32;;
50683;SDS011;36654;45.042;38.994;2023-09-19T02:02:47;9.57;;;5.95;;
50683;SDS011;36654;45.042;38.994;2023-09-19T02:05:13;10.77;;;5.43;;
50683;SDS011;36654;45.042;38.994;2023-09-19T02:07:39;12.52;;;5.90;;
50683;SDS011;36654;45.042;38.994;2023-09-19T02:10:05;12.48;;;6.03;;
50683;SDS011;36654;45.042;38.994;2023-09-19T02:12:32;11.48;;;6.10;;
50683;SDS011;36654;45.042;38.994;2023-09-19T02:14:59;10.00;;;6.35;;
50683;SDS011;36654;45.042;38.994;2023-09-19T02:17:25;10.82;;;6.40;;
50683;SDS011;36654;45.042;38.994;2023-09-19T02:19:51;9.82;;;6.38;;
50683;SDS011;36654;45.042;38.994;2023-09-19T02:22:20;7.82;;;6.18;;
50683;SDS011;36654;45.042;38.994;2023-09-19T02:24:48;10.75;;;6.43;;
50683;SDS011;36654;45.042;38.994;2023-09-19T02:27:14;9.93;;;5.95;;
50683;SDS011;36654;45.042;38.994;2023-09-19T02:29:41;9.88;;;6.70;;
50683;SDS011;36654;45.042;38.994;2023-09-19T02:32:07;9.95;;;6.80;;
50683;SDS011;36654;45.042;38.994;2023-09-19T02:34:34;9.45;;;6.22;;
50683;SDS011;36654;45.042;38.994;2023-09-19T02:37:04;9.75;;;6.45;;
50683;SDS011;36654;45.042;38.994;2023-09-19T02:39:33;11.52;;;7.25;;
50683;SDS011;36654;45.042;38.994;2023-09-19T02:41:59;9.40;;;6.80;;
50683;SDS011;36654;45.042;38.994;2023-09-19T02:44:25;11.82;;;6.97;;
50683;SDS011;36654;45.042;38.994;2023-09-19T02:46:50;12.00;;;7.18;;
50683;SDS011;36654;45.042;38.994;2023-09-19T02:49:16;11.20;;;6.82;;
50683;SDS011;36654;45.042;38.994;2023-09-19T02:51:43;8.93;;;6.45;;
50683;SDS011;36654;45.042;38.994;2023-09-19T02:54:09;13.05;;;6.95;;
50683;SDS011;36654;45.042;38.994;2023-09-19T02:56:36;13.05;;;8.13;;
50683;SDS011;36654;45.042;38.994;2023-09-19T02:59:03;11.75;;;7.20;;
50683;SDS011;36654;45.042;38.994;2023-09-19T03:01:28;16.95;;;7.70;;
50683;SDS011;36654;45.042;38.994;2023-09-19T03:03:54;11.98;;;8.02;;
50683;SDS011;36654;45.042;38.994;2023-09-19T03:06:20;13.68;;;7.90;;
50683;SDS011;36654;45.042;38.994;2023-09-19T03:08:46;10.95;;;7.68;;
50683;SDS011;36654;45.042;38.994;2023-09-19T03:11:14;12.50;;;8.07;;
50683;SDS011;36654;45.042;38.994;2023-09-19T03:13:41;13.10;;;7.97;;
50683;SDS011;36654;45.042;38.994;2023-09-19T03:16:07;12.85;;;7.57;;
50683;SDS011;36654;45.042;38.994;2023-09-19T03:18:34;13.25;;;8.40;;
50683;SDS011;36654;45.042;38.994;2023-09-19T03:20:59;12.15;;;8.27;;
50683;SDS011;36654;45.042;38.994;2023-09-19T03:23:25;15.10;;;8.30;;
50683;SDS011;36654;45.042;38.994;2023-09-19T03:25:52;15.15;;;8.30;;
50683;SDS011;36654;45.042;38.994;2023-09-19T03:28:19;15.02;;;8.77;;
50683;SDS011;36654;45.042;38.994;2023-09-19T03:30:56;11.68;;;7.90;;
50683;SDS011;36654;45.042;38.994;2023-09-19T03:33:24;17.83;;;8.43;;
50683;SDS011;36654;45.042;38.994;2023-09-19T03:35:53;13.40;;;8.65;;
50683;SDS011;36654;45.042;38.994;2023-09-19T03:38:20;17.25;;;8.65;;
50683;SDS011;36654;45.042;38.994;2023-09-19T03:40:47;14.75;;;8.23;;
50683;SDS011;36654;45.042;38.994;2023-09-19T03:43:14;12.50;;;8.60;;
50683;SDS011;36654;45.042;38.994;2023-09-19T03:45:39;15.20;;;8.75;;
50683;SDS011;36654;45.042;38.994;2023-09-19T03:48:09;18.65;;;9.15;;
50683;SDS011;36654;45.042;38.994;2023-09-19T03:50:36;14.80;;;9.43;;
50683;SDS011;36654;45.042;38.994;2023-09-19T03:53:02;19.20;;;8.63;;
50683;SDS011;36654;45.042;38.994;2023-09-19T03:55:28;14.85;;;8.90;;
50683;SDS011;36654;45.042;38.994;2023-09-19T03:57:57;14.90;;;9.20;;
50683;SDS011;36654;45.042;38.994;2023-09-19T04:00:23;13.10;;;9.38;;
50683;SDS011;36654;45.042;38.994;2023-09-19T04:02:51;17.98;;;9.18;;
50683;SDS011;36654;45.042;38.994;2023-09-19T04:05:18;12.68;;;8.80;;
50683;SDS011;36654;45.042;38.994;2023-09-19T04:07:44;15.55;;;9.27;;
50683;SDS011;36654;45.042;38.994;2023-09-19T04:10:09;14.95;;;8.45;;
50683;SDS011;36654;45.042;38.994;2023-09-19T04:12:37;14.55;;;8.48;;
50683;SDS011;36654;45.042;38.994;2023-09-19T04:15:04;15.45;;;9.07;;
50683;SDS011;36654;45.042;38.994;2023-09-19T04:17:31;13.40;;;8.75;;
50683;SDS011;36654;45.042;38.994;2023-09-19T04:22:25;15.52;;;8.60;;
50683;SDS011;36654;45.042;38.994;2023-09-19T04:24:51;14.15;;;8.88;;
50683;SDS011;36654;45.042;38.994;2023-09-19T04:27:16;13.35;;;8.38;;
50683;SDS011;36654;45.042;38.994;2023-09-19T04:29:44;16.92;;;8.07;;
50683;SDS011;36654;45.042;38.994;2023-09-19T04:32:09;17.92;;;7.93;;
50683;SDS011;36654;45.042;38.994;2023-09-19T04:34:35;11.70;;;7.93;;
50683;SDS011;36654;45.042;38.994;2023-09-19T04:37:03;12.48;;;8.23;;
50683;SDS011;36654;45.042;38.994;2023-09-19T04:39:29;14.32;;;8.05;;
50683;SDS011;36654;45.042;38.994;2023-09-19T04:41:54;20.20;;;7.95;;
50683;SDS011;36654;45.042;38.994;2023-09-19T04:44:20;15.02;;;8.40;;
50683;SDS011;36654;45.042;38.994;2023-09-19T04:46:46;14.65;;;7.55;;
50683;SDS011;36654;45.042;38.994;2023-09-19T04:49:12;17.55;;;8.02;;
50683;SDS011;36654;45.042;38.994;2023-09-19T04:51:38;11.88;;;7.78;;
50683;SDS011;36654;45.042;38.994;2023-09-19T04:54:05;14.70;;;7.18;;
50683;SDS011;36654;45.042;38.994;2023-09-19T04:56:31;12.80;;;7.32;;
50683;SDS011;36654;45.042;38.994;2023-09-19T04:58:57;11.95;;;7.00;;
50683;SDS011;36654;45.042;38.994;2023-09-19T05:01:26;12.30;;;7.43;;
50683;SDS011;36654;45.042;38.994;2023-09-19T05:03:52;15.98;;;7.45;;
50683;SDS011;36654;45.042;38.994;2023-09-19T05:06:21;13.73;;;7.18;;
50683;SDS011;36654;45.042;38.994;2023-09-19T05:08:47;12.93;;;6.70;;
50683;SDS011;36654;45.042;38.994;2023-09-19T05:11:20;13.15;;;6.50;;
50683;SDS011;36654;45.042;38.994;2023-09-19T05:13:48;16.75;;;7.05;;
50683;SDS011;36654;45.042;38.994;2023-09-19T05:16:18;12.95;;;5.45;;
50683;SDS011;36654;45.042;38.994;2023-09-19T05:18:44;19.00;;;7.00;;
50683;SDS011;36654;45.042;38.994;2023-09-19T05:21:10;10.20;;;5.68;;
50683;SDS011;36654;45.042;38.994;2023-09-19T05:23:35;12.07;;;6.00;;
50683;SDS011;36654;45.042;38.994;2023-09-19T05:26:02;15.55;;;5.90;;
50683;SDS011;36654;45.042;38.994;2023-09-19T05:28:29;12.70;;;5.60;;
50683;SDS011;36654;45.042;38.994;2023-09-19T05:30:55;13.60;;;5.90;;
50683;SDS011;36654;45.042;38.994;2023-09-19T05:33:20;11.68;;;5.50;;
50683;SDS011;36654;45.042;38.994;2023-09-19T05:35:49;13.60;;;5.43;;
50683;SDS011;36654;45.042;38.994;2023-09-19T05:38:14;11.93;;;5.53;;
50683;SDS011;36654;45.042;38.994;2023-09-19T05:40:44;10.93;;;5.18;;
50683;SDS011;36654;45.042;38.994;2023-09-19T05:43:10;11.18;;;5.45;;
50683;SDS011;36654;45.042;38.994;2023-09-19T05:45:36;8.70;;;4.65;;
50683;SDS011;36654;45.042;38.994;2023-09-19T05:48:09;12.38;;;5.00;;
50683;SDS011;36654;45.042;38.994;2023-09-19T05:50:39;9.70;;;4.28;;
50683;SDS011;36654;45.042;38.994;2023-09-19T05:53:05;9.38;;;4.72;;
50683;SDS011;36654;45.042;38.994;2023-09-19T05:55:31;7.30;;;4.28;;
50683;SDS011;36654;45.042;38.994;2023-09-19T05:57:57;9.95;;;4.40;;
50683;SDS011;36654;45.042;38.994;2023-09-19T06:00:24;14.10;;;5.18;;
50683;SDS011;36654;45.042;38.994;2023-09-19T06:02:55;8.73;;;4.35;;
50683;SDS011;36654;45.042;38.994;2023-09-19T06:05:22;14.02;;;4.35;;
50683;SDS011;36654;45.042;38.994;2023-09-19T06:07:49;10.55;;;4.28;;
50683;SDS011;36654;45.042;38.994;2023-09-19T06:10:16;12.52;;;4.55;;
50683;SDS011;36654;45.042;38.994;2023-09-19T06:12:42;11.13;;;4.65;;
50683;SDS011;36654;45.042;38.994;2023-09-19T06:15:09;15.48;;;4.82;;
50683;SDS011;36654;45.042;38.994;2023-09-19T06:17:40;17.63;;;4.38;;
50683;SDS011;36654;45.042;38.994;2023-09-19T06:20:16;8.77;;;4.45;;
50683;SDS011;36654;45.042;38.994;2023-09-19T06:22:42;8.90;;;4.38;;
50683;SDS011;36654;45.042;38.994;2023-09-19T06:25:13;8.10;;;4.50;;
50683;SDS011;36654;45.042;38.994;2023-09-19T06:27:46;10.40;;;3.97;;
50683;SDS011;36654;45.042;38.994;2023-09-19T06:30:17;9.63;;;4.60;;
50683;SDS011;36654;45.042;38.994;2023-09-19T06:32:43;20.00;;;5.10;;
50683;SDS011;36654;45.042;38.994;2023-09-19T06:35:10;16.20;;;4.67;;
50683;SDS011;36654;45.042;38.994;2023-09-19T06:37:40;10.25;;;4.18;;
50683;SDS011;36654;45.042;38.994;2023-09-19T06:40:07;6.68;;;4.32;;
50683;SDS011;36654;45.042;38.994;2023-09-19T06:42:42;6.97;;;4.38;;
50683;SDS011;36654;45.042;38.994;2023-09-19T06:45:10;11.65;;;4.90;;
50683;SDS011;36654;45.042;38.994;2023-09-19T06:47:38;6.43;;;4.38;;
50683;SDS011;36654;45.042;38.994;2023-09-19T06:50:05;7.38;;;4.35;;
50683;SDS011;36654;45.042;38.994;2023-09-19T06:52:34;8.90;;;4.57;;
50683;SDS011;36654;45.042;38.994;2023-09-19T06:55:00;9.98;;;4.47;;
50683;SDS011;36654;45.042;38.994;2023-09-19T06:57:28;12.48;;;4.57;;
50683;SDS011;36654;45.042;38.994;2023-09-19T06:59:55;7.55;;;4.55;;
50683;SDS011;36654;45.042;38.994;2023-09-19T07:02:21;7.57;;;4.30;;
50683;SDS011;36654;45.042;38.994;2023-09-19T07:04:47;7.68;;;3.85;;
50683;SDS011;36654;45.042;38.994;2023-09-19T07:07:13;7.18;;;4.50;;
50683;SDS011;36654;45.042;38.994;2023-09-19T07:09:39;14.88;;;5.05;;
50683;SDS011;36654;45.042;38.994;2023-09-19T07:12:05;14.40;;;5.32;;
50683;SDS011;36654;45.042;38.994;2023-09-19T07:14:31;8.43;;;4.50;;
50683;SDS011;36654;45.042;38.994;2023-09-19T07:16:59;10.55;;;4.50;;
50683;SDS011;36654;45.042;38.994;2023-09-19T07:19:25;11.15;;;4.30;;
50683;SDS011;36654;45.042;38.994;2023-09-19T07:21:55;8.73;;;4.38;;
50683;SDS011;36654;45.042;38.994;2023-09-19T07:24:21;13.27;;;4.00;;
50683;SDS011;36654;45.042;38.994;2023-09-19T07:26:49;7.32;;;3.75;;
50683;SDS011;36654;45.042;38.994;2023-09-19T07:29:15;9.88;;;4.90;;
50683;SDS011;36654;45.042;38.994;2023-09-19T07:31:40;10.70;;;3.78;;
50683;SDS011;36654;45.042;38.994;2023-09-19T07:34:07;9.85;;;4.55;;
50683;SDS011;36654;45.042;38.994;2023-09-19T07:36:34;6.30;;;3.72;;
50683;SDS011;36654;45.042;38.994;2023-09-19T07:38:59;6.00;;;3.80;;
50683;SDS011;36654;45.042;38.994;2023-09-19T07:41:25;8.70;;;4.03;;
50683;SDS011;36654;45.042;38.994;2023-09-19T07:43:51;5.82;;;3.80;;
50683;SDS011;36654;45.042;38.994;2023-09-19T07:46:17;7.82;;;3.88;;
50683;SDS011;36654;45.042;38.994;2023-09-19T07:48:42;9.70;;;4.07;;
50683;SDS011;36654;45.042;38.994;2023-09-19T07:51:12;9.48;;;3.70;;
50683;SDS011;36654;45.042;38.994;2023-09-19T07:53:39;8.65;;;4.30;;
50683;SDS011;36654;45.042;38.994;2023-09-19T07:56:08;11.23;;;4.05;;
50683;SDS011;36654;45.042;38.994;2023-09-19T07:58:35;9.77;;;4.10;;
50683;SDS011;36654;45.042;38.994;2023-09-19T08:01:03;11.13;;;4.07;;
50683;SDS011;36654;45.042;38.994;2023-09-19T08:03:34;6.60;;;3.80;;
50683;SDS011;36654;45.042;38.994;2023-09-19T08:06:05;9.95;;;4.35;;
50683;SDS011;36654;45.042;38.994;2023-09-19T08:08:32;5.20;;;3.47;;
50683;SDS011;36654;45.042;38.994;2023-09-19T08:10:59;9.95;;;3.85;;
50683;SDS011;36654;45.042;38.994;2023-09-19T08:13:26;5.22;;;3.33;;
50683;SDS011;36654;45.042;38.994;2023-09-19T08:15:52;4.43;;;3.63;;
50683;SDS011;36654;45.042;38.994;2023-09-19T08:18:21;4.82;;;3.20;;
50683;SDS011;36654;45.042;38.994;2023-09-19T08:20:51;5.40;;;3.00;;
50683;SDS011;36654;45.042;38.994;2023-09-19T08:23:17;6.20;;;3.88;;
50683;SDS011;36654;45.042;38.994;2023-09-19T08:25:45;7.90;;;3.88;;
50683;SDS011;36654;45.042;38.994;2023-09-19T08:28:11;5.88;;;3.03;;
50683;SDS011;36654;45.042;38.994;2023-09-19T08:30:39;7.10;;;3.47;;
50683;SDS011;36654;45.042;38.994;2023-09-19T08:33:06;6.25;;;3.78;;
50683;SDS011;36654;45.042;38.994;2023-09-19T08:35:32;6.97;;;3.38;;
50683;SDS011;36654;45.042;38.994;2023-09-19T08:37:58;6.90;;;3.42;;
50683;SDS011;36654;45.042;38.994;2023-09-19T08:40:30;8.32;;;4.05;;
50683;SDS011;36654;45.042;38.994;2023-09-19T08:42:58;4.55;;;3.00;;
50683;SDS011;36654;45.042;38.994;2023-09-19T08:45:25;4.75;;;3.63;;
50683;SDS011;36654;45.042;38.994;2023-09-19T08:48:00;6.57;;;3.17;;
50683;SDS011;36654;45.042;38.994;2023-09-19T08:50:28;8.52;;;3.10;;
50683;SDS011;36654;45.042;38.994;2023-09-19T08:52:55;7.03;;;3.00;;
50683;SDS011;36654;45.042;38.994;2023-09-19T08:55:26;6.75;;;2.90;;
50683;SDS011;36654;45.042;38.994;2023-09-19T08:57:57;7.38;;;3.10;;
50683;SDS011;36654;45.042;38.994;2023-09-19T09:00:27;6.10;;;3.25;;
50683;SDS011;36654;45.042;38.994;2023-09-19T09:02:54;6.82;;;2.70;;
50683;SDS011;36654;45.042;38.994;2023-09-19T09:05:22;10.95;;;3.22;;
50683;SDS011;36654;45.042;38.994;2023-09-19T09:07:52;8.15;;;3.42;;
50683;SDS011;36654;45.042;38.994;2023-09-19T09:10:21;11.45;;;3.30;;
50683;SDS011;36654;45.042;38.994;2023-09-19T09:12:51;4.97;;;2.80;;
50683;SDS011;36654;45.042;38.994;2023-09-19T09:15:22;6.45;;;2.97;;
50683;SDS011;36654;45.042;38.994;2023-09-19T09:17:50;5.07;;;2.88;;
50683;SDS011;36654;45.042;38.994;2023-09-19T09:20:18;9.07;;;3.78;;
50683;SDS011;36654;45.042;38.994;2023-09-19T09:22:54;17.40;;;3.60;;
50683;SDS011;36654;45.042;38.994;2023-09-19T09:25:46;6.07;;;3.38;;
50683;SDS011;36654;45.042;38.994;2023-09-19T09:28:22;9.32;;;3.28;;
50683;SDS011;36654;45.042;38.994;2023-09-19T09:30:50;5.63;;;2.95;;
50683;SDS011;36654;45.042;38.994;2023-09-19T09:33:16;3.30;;;2.72;;
50683;SDS011;36654;45.042;38.994;2023-09-19T09:35:53;9.80;;;2.95;;
50683;SDS011;36654;45.042;38.994;2023-09-19T09:38:29;5.45;;;2.70;;
50683;SDS011;36654;45.042;38.994;2023-09-19T09:41:08;7.25;;;2.97;;
50683;SDS011;36654;45.042;38.994;2023-09-19T09:43:35;4.88;;;2.95;;
50683;SDS011;36654;45.042;38.994;2023-09-19T09:48:48;5.75;;;2.45;;
50683;SDS011;36654;45.042;38.994;2023-09-19T09:52:00;3.88;;;2.75;;
50683;SDS011;36654;45.042;38.994;2023-09-19T09:54:32;4.22;;;2.80;;
50683;SDS011;36654;45.042;38.994;2023-09-19T09:57:02;4.45;;;2.65;;
50683;SDS011;36654;45.042;38.994;2023-09-19T09:59:51;3.30;;;3.00;;
50683;SDS011;36654;45.042;38.994;2023-09-19T10:02:26;7.07;;;3.00;;
50683;SDS011;36654;45.042;38.994;2023-09-19T10:05:10;8.52;;;2.67;;
50683;SDS011;36654;45.042;38.994;2023-09-19T10:07:53;7.55;;;2.90;;
50683;SDS011;36654;45.042;38.994;2023-09-19T10:10:35;4.95;;;3.00;;
50683;SDS011;36654;45.042;38.994;2023-09-19T10:13:05;4.75;;;2.80;;
50683;SDS011;36654;45.042;38.994;2023-09-19T10:15:32;5.22;;;3.05;;
50683;SDS011;36654;45.042;38.994;2023-09-19T10:18:04;4.72;;;3.03;;
50683;SDS011;36654;45.042;38.994;2023-09-19T10:20:30;5.30;;;2.88;;
50683;SDS011;36654;45.042;38.994;2023-09-19T10:23:00;7.70;;;3.00;;
50683;SDS011;36654;45.042;38.994;2023-09-19T10:25:28;4.22;;;2.60;;
50683;SDS011;36654;45.042;38.994;2023-09-19T10:27:56;4.63;;;2.72;;
50683;SDS011;36654;45.042;38.994;2023-09-19T10:30:24;5.32;;;3.17;;
50683;SDS011;36654;45.042;38.994;2023-09-19T10:32:56;6.55;;;2.60;;
50683;SDS011;36654;45.042;38.994;2023-09-19T10:35:26;6.68;;;2.80;;
50683;SDS011;36654;45.042;38.994;2023-09-19T10:37:54;3.50;;;2.80;;
50683;SDS011;36654;45.042;38.994;2023-09-19T10:40:26;6.35;;;2.95;;
50683;SDS011;36654;45.042;38.994;2023-09-19T10:42:58;2.78;;;2.58;;
50683;SDS011;36654;45.042;38.994;2023-09-19T10:45:26;5.97;;;2.55;;
50683;SDS011;36654;45.042;38.994;2023-09-19T10:47:57;3.63;;;3.03;;
50683;SDS011;36654;45.042;38.994;2023-09-19T10:50:23;7.68;;;2.90;;
50683;SDS011;36654;45.042;38.994;2023-09-19T10:52:50;8.88;;;2.97;;
50683;SDS011;36654;45.042;38.994;2023-09-19T10:55:25;9.27;;;3.20;;
50683;SDS011;36654;45.042;38.994;2023-09-19T10:57:53;3.63;;;2.80;;
50683;SDS011;36654;45.042;38.994;2023-09-19T11:00:22;4.72;;;2.72;;
50683;SDS011;36654;45.042;38.994;2023-09-19T11:06:05;4.25;;;2.80;;
50683;SDS011;36654;45.042;38.994;2023-09-19T11:08:58;6.35;;;2.85;;
50683;SDS011;36654;45.042;38.994;2023-09-19T11:30:32;5.45;;;2.60;;
50683;SDS011;36654;45.042;38.994;2023-09-19T11:33:17;6.22;;;2.60;;
50683;SDS011;36654;45.042;38.994;2023-09-19T11:36:10;6.03;;;2.63;;
50683;SDS011;36654;45.042;38.994;2023-09-19T11:43:50;7.15;;;2.80;;
50683;SDS011;36654;45.042;38.994;2023-09-19T11:46:34;6.28;;;2.50;;
50683;SDS011;36654;45.042;38.994;2023-09-19T11:49:17;4.35;;;2.67;;
50683;SDS011;36654;45.042;38.994;2023-09-19T11:51:57;5.45;;;2.33;;
50683;SDS011;36654;45.042;38.994;2023-09-19T11:54:26;4.40;;;2.70;;
50683;SDS011;36654;45.042;38.994;2023-09-19T11:56:57;7.20;;;2.47;;
50683;SDS011;36654;45.042;38.994;2023-09-19T11:59:24;3.72;;;2.25;;
50683;SDS011;36654;45.042;38.994;2023-09-19T12:01:54;5.93;;;2.75;;
50683;SDS011;36654;45.042;38.994;2023-09-19T12:04:37;8.48;;;2.85;;
50683;SDS011;36654;45.042;38.994;2023-09-19T12:07:08;3.08;;;2.22;;
50683;SDS011;36654;45.042;38.994;2023-09-19T12:09:41;5.80;;;2.50;;
50683;SDS011;36654;45.042;38.994;2023-09-19T12:12:09;6.40;;;2.58;;
50683;SDS011;36654;45.042;38.994;2023-09-19T12:14:38;8.00;;;2.97;;
50683;SDS011;36654;45.042;38.994;2023-09-19T12:17:04;4.65;;;2.60;;
50683;SDS011;36654;45.042;38.994;2023-09-19T12:19:30;6.32;;;2.67;;
50683;SDS011;36654;45.042;38.994;2023-09-19T12:21:57;5.70;;;2.95;;
50683;SDS011;36654;45.042;38.994;2023-09-19T12:24:30;4.65;;;2.92;;
50683;SDS011;36654;45.042;38.994;2023-09-19T12:27:06;4.78;;;2.88;;
50683;SDS011;36654;45.042;38.994;2023-09-19T12:29:42;15.50;;;3.20;;
50683;SDS011;36654;45.042;38.994;2023-09-19T12:32:11;12.38;;;3.05;;
50683;SDS011;36654;45.042;38.994;2023-09-19T12:34:38;7.13;;;2.90;;
50683;SDS011;36654;45.042;38.994;2023-09-19T12:37:08;5.53;;;3.30;;
50683;SDS011;36654;45.042;38.994;2023-09-19T12:39:40;7.70;;;3.25;;
50683;SDS011;36654;45.042;38.994;2023-09-19T12:42:17;3.38;;;3.08;;
50683;SDS011;36654;45.042;38.994;2023-09-19T12:44:45;7.25;;;3.28;;
50683;SDS011;36654;45.042;38.994;2023-09-19T12:47:17;6.90;;;3.08;;
50683;SDS011;36654;45.042;38.994;2023-09-19T12:52:38;4.25;;;2.80;;
50683;SDS011;36654;45.042;38.994;2023-09-19T12:55:05;3.75;;;3.10;;
50683;SDS011;36654;45.042;38.994;2023-09-19T12:57:32;7.22;;;4.03;;
50683;SDS011;36654;45.042;38.994;2023-09-19T13:00:03;4.75;;;3.08;;
50683;SDS011;36654;45.042;38.994;2023-09-19T13:02:36;8.27;;;3.08;;
50683;SDS011;36654;45.042;38.994;2023-09-19T13:05:02;4.00;;;2.80;;
50683;SDS011;36654;45.042;38.994;2023-09-19T13:07:44;5.72;;;2.83;;
50683;SDS011;36654;45.042;38.994;2023-09-19T13:10:15;7.28;;;2.80;;
50683;SDS011;36654;45.042;38.994;2023-09-19T13:12:41;5.70;;;2.70;;
50683;SDS011;36654;45.042;38.994;2023-09-19T13:15:12;9.95;;;3.20;;
50683;SDS011;36654;45.042;38.994;2023-09-19T13:17:48;7.28;;;2.90;;
50683;SDS011;36654;45.042;38.994;2023-09-19T13:20:21;6.90;;;3.05;;
50683;SDS011;36654;45.042;38.994;2023-09-19T13:22:54;9.05;;;2.85;;
50683;SDS011;36654;45.042;38.994;2023-09-19T13:25:25;6.70;;;2.90;;
50683;SDS011;36654;45.042;38.994;2023-09-19T13:27:54;4.95;;;2.75;;
50683;SDS011;36654;45.042;38.994;2023-09-19T13:30:21;5.40;;;2.88;;
50683;SDS011;36654;45.042;38.994;2023-09-19T13:32:51;8.95;;;2.83;;
50683;SDS011;36654;45.042;38.994;2023-09-19T13:35:18;4.93;;;2.50;;
50683;SDS011;36654;45.042;38.994;2023-09-19T13:37:46;5.65;;;2.75;;
50683;SDS011;36654;45.042;38.994;2023-09-19T13:40:16;5.07;;;2.40;;
50683;SDS011;36654;45.042;38.994;2023-09-19T13:42:42;6.90;;;2.85;;
50683;SDS011;36654;45.042;38.994;2023-09-19T13:45:08;9.30;;;2.70;;
50683;SDS011;36654;45.042;38.994;2023-09-19T13:47:40;4.95;;;2.58;;
50683;SDS011;36654;45.042;38.994;2023-09-19T13:50:06;2.88;;;2.30;;
50683;SDS011;36654;45.042;38.994;2023-09-19T13:52:33;7.55;;;2.97;;
50683;SDS011;36654;45.042;38.994;2023-09-19T13:54:59;5.95;;;2.80;;
50683;SDS011;36654;45.042;38.994;2023-09-19T13:57:25;4.53;;;2.58;;
50683;SDS011;36654;45.042;38.994;2023-09-19T13:59:51;7.50;;;3.03;;
50683;SDS011;36654;45.042;38.994;2023-09-19T14:02:19;6.95;;;2.42;;
50683;SDS011;36654;45.042;38.994;2023-09-19T14:04:48;3.15;;;2.33;;
50683;SDS011;36654;45.042;38.994;2023-09-19T14:07:14;4.40;;;2.70;;
50683;SDS011;36654;45.042;38.994;2023-09-19T14:09:42;6.72;;;2.72;;
50683;SDS011;36654;45.042;38.994;2023-09-19T14:12:08;4.88;;;2.75;;
50683;SDS011;36654;45.042;38.994;2023-09-19T14:14:34;4.15;;;2.60;;
50683;SDS011;36654;45.042;38.994;2023-09-19T14:16:59;4.65;;;2.80;;
50683;SDS011;36654;45.042;38.994;2023-09-19T14:19:28;8.32;;;2.55;;
50683;SDS011;36654;45.042;38.994;2023-09-19T14:21:54;2.95;;;2.17;;
50683;SDS011;36654;45.042;38.994;2023-09-19T14:24:25;6.35;;;2.60;;
50683;SDS011;36654;45.042;38.994;2023-09-19T14:26:51;5.18;;;2.75;;
50683;SDS011;36654;45.042;38.994;2023-09-19T14:29:16;4.13;;;2.75;;
50683;SDS011;36654;45.042;38.994;2023-09-19T14:31:42;5.25;;;3.15;;
50683;SDS011;36654;45.042;38.994;2023-09-19T14:34:08;6.90;;;3.20;;
50683;SDS011;36654;45.042;38.994;2023-09-19T14:36:37;10.57;;;3.20;;
50683;SDS011;36654;45.042;38.994;2023-09-19T14:39:06;8.27;;;2.92;;
50683;SDS011;36654;45.042;38.994;2023-09-19T14:41:33;5.40;;;2.50;;
50683;SDS011;36654;45.042;38.994;2023-09-19T14:43:59;18.75;;;3.25;;
50683;SDS011;36654;45.042;38.994;2023-09-19T14:46:27;4.40;;;2.60;;
50683;SDS011;36654;45.042;38.994;2023-09-19T14:48:53;10.00;;;2.67;;
50683;SDS011;36654;45.042;38.994;2023-09-19T14:51:22;5.85;;;3.47;;
50683;SDS011;36654;45.042;38.994;2023-09-19T14:53:47;4.10;;;3.17;;
50683;SDS011;36654;45.042;38.994;2023-09-19T14:56:14;12.30;;;5.78;;
50683;SDS011;36654;45.042;38.994;2023-09-19T14:58:45;4.03;;;2.95;;
50683;SDS011;36654;45.042;38.994;2023-09-19T15:01:12;5.40;;;2.65;;
50683;SDS011;36654;45.042;38.994;2023-09-19T15:03:39;5.68;;;3.60;;
50683;SDS011;36654;45.042;38.994;2023-09-19T15:06:09;5.38;;;3.00;;
50683;SDS011;36654;45.042;38.994;2023-09-19T15:08:39;6.32;;;2.90;;
50683;SDS011;36654;45.042;38.994;2023-09-19T15:11:08;7.50;;;3.17;;
50683;SDS011;36654;45.042;38.994;2023-09-19T15:13:35;3.72;;;2.90;;
50683;SDS011;36654;45.042;38.994;2023-09-19T15:16:05;9.35;;;3.22;;
50683;SDS011;36654;45.042;38.994;2023-09-19T15:18:38;3.92;;;2.90;;
50683;SDS011;36654;45.042;38.994;2023-09-19T15:21:10;6.50;;;3.13;;
50683;SDS011;36654;45.042;38.994;2023-09-19T15:23:36;11.48;;;3.47;;
50683;SDS011;36654;45.042;38.994;2023-09-19T15:26:03;4.13;;;2.92;;
50683;SDS011;36654;45.042;38.994;2023-09-19T15:28:30;7.60;;;3.13;;
50683;SDS011;36654;45.042;38.994;2023-09-19T15:30:58;10.60;;;3.55;;
50683;SDS011;36654;45.042;38.994;2023-09-19T15:33:25;6.35;;;3.30;;